createdAt,value
2023-04-26T00:01:25.844Z,10.95
2023-04-26T00:04:29.081Z,10.89
2023-04-26T00:07:30.909Z,10.85
2023-04-26T00:10:30.854Z,10.81
2023-04-26T00:13:31.734Z,10.78
2023-04-26T00:16:31.816Z,10.76
2023-04-26T00:19:31.799Z,10.72
2023-04-26T00:22:31.804Z,10.68
2023-04-26T00:25:32.833Z,10.63
2023-04-26T00:28:32.858Z,10.59
2023-04-26T00:31:32.849Z,10.57
2023-04-26T00:34:32.862Z,10.53
2023-04-26T00:37:33.854Z,10.47
2023-04-26T00:40:33.883Z,10.42
2023-04-26T00:43:34.919Z,10.38
2023-04-26T00:46:34.859Z,10.35
2023-04-26T00:49:36.864Z,10.32
2023-04-26T00:52:36.870Z,10.30
2023-04-26T00:55:36.975Z,10.27
2023-04-26T00:58:36.853Z,10.24
2023-04-26T01:01:36.895Z,10.23
2023-04-26T01:04:36.934Z,10.22
2023-04-26T01:07:37.910Z,10.20
2023-04-26T01:10:37.920Z,10.18
2023-04-26T01:13:37.891Z,10.16
2023-04-26T01:16:38.957Z,10.13
2023-04-26T01:19:39.961Z,10.11
2023-04-26T01:22:39.971Z,10.08
2023-04-26T01:25:39.931Z,10.07
2023-04-26T01:28:39.927Z,10.07
2023-04-26T01:31:39.879Z,10.06
2023-04-26T01:34:40.963Z,10.06
2023-04-26T01:37:44.915Z,10.06
2023-04-26T01:40:45.013Z,10.08
2023-04-26T01:43:45.219Z,10.10
2023-04-26T01:46:45.099Z,10.13
2023-04-26T01:49:44.990Z,10.15
2023-04-26T01:52:46.989Z,10.17
2023-04-26T01:55:46.950Z,10.19
2023-04-26T01:58:50.120Z,10.20
2023-04-26T02:01:52.028Z,10.21
2023-04-26T02:04:53.033Z,10.21
2023-04-26T02:07:53.107Z,10.23
2023-04-26T02:10:52.959Z,10.23
2023-04-26T02:13:53.008Z,10.23
2023-04-26T02:16:53.013Z,10.22
2023-04-26T02:19:54.042Z,10.19
2023-04-26T02:22:55.018Z,10.16
2023-04-26T02:25:55.049Z,10.14
2023-04-26T02:28:56.029Z,10.11
2023-04-26T02:31:56.168Z,10.05
2023-04-26T02:34:56.006Z,10.00
2023-04-26T02:37:56.099Z,9.98
2023-04-26T02:40:59.029Z,9.96
2023-04-26T02:43:59.050Z,9.94
2023-04-26T02:46:59.036Z,9.95
2023-04-26T02:49:59.079Z,9.98
2023-04-26T02:52:59.094Z,10.02
2023-04-26T02:56:00.044Z,10.06
2023-04-26T02:59:00.339Z,10.08
2023-04-26T03:02:00.145Z,10.07
2023-04-26T03:05:00.084Z,10.08
2023-04-26T03:08:00.147Z,10.08
2023-04-26T03:11:00.112Z,10.09
2023-04-26T03:14:02.099Z,10.09
2023-04-26T03:17:02.214Z,10.08
2023-04-26T03:20:02.874Z,10.08
2023-04-26T03:23:03.122Z,10.07
2023-04-26T03:26:03.186Z,10.08
2023-04-26T03:29:03.134Z,10.09
2023-04-26T03:32:03.155Z,10.11
2023-04-26T03:35:03.114Z,10.12
2023-04-26T03:38:03.180Z,10.12
2023-04-26T03:41:03.172Z,10.12
2023-04-26T03:44:10.202Z,10.14
2023-04-26T03:47:11.149Z,10.17
2023-04-26T03:50:11.219Z,10.18
2023-04-26T03:53:14.378Z,10.18
2023-04-26T03:56:14.196Z,10.21
2023-04-26T03:59:16.202Z,10.23
2023-04-26T04:02:16.216Z,10.25
2023-04-26T04:05:16.294Z,10.29
2023-04-26T04:08:17.197Z,10.30
2023-04-26T04:11:18.181Z,10.29
2023-04-26T04:14:18.230Z,10.31
2023-04-26T04:17:18.188Z,10.33
2023-04-26T04:20:18.207Z,10.36
2023-04-26T04:23:20.241Z,10.37
2023-04-26T04:26:21.234Z,10.39
2023-04-26T04:29:22.266Z,10.41
2023-04-26T04:32:23.258Z,10.41
2023-04-26T04:35:23.298Z,10.39
2023-04-26T04:38:26.498Z,10.37
2023-04-26T04:41:28.245Z,10.37
2023-04-26T04:44:30.249Z,10.36
2023-04-26T04:47:30.382Z,10.40
2023-04-26T04:50:30.605Z,10.40
2023-04-26T04:53:31.353Z,10.38
2023-04-26T04:56:32.268Z,10.36
2023-04-26T04:59:32.247Z,10.37
2023-04-26T05:02:32.398Z,10.37
2023-04-26T05:05:32.242Z,10.31
2023-04-26T05:08:34.357Z,10.29
2023-04-26T05:11:35.356Z,10.30
2023-04-26T05:14:36.300Z,10.34
2023-04-26T05:17:38.416Z,10.42
2023-04-26T05:20:47.300Z,10.52
2023-04-26T05:23:48.317Z,10.54
2023-04-26T05:26:49.357Z,10.59
2023-04-26T05:30:14.381Z,10.67
2023-04-26T05:33:13.434Z,10.77
2023-04-26T05:36:22.417Z,10.89
2023-04-26T05:39:22.558Z,10.95
2023-04-26T05:42:23.349Z,11.01
2023-04-26T05:45:23.439Z,11.07
2023-04-26T05:48:23.341Z,11.07
2023-04-26T05:51:23.504Z,11.06
2023-04-26T05:54:23.405Z,11.09
2023-04-26T05:57:24.368Z,11.13
2023-04-26T06:00:26.421Z,11.11
2023-04-26T06:03:26.639Z,11.08
2023-04-26T06:06:27.405Z,11.08
2023-04-26T06:09:27.419Z,11.12
2023-04-26T06:12:27.465Z,11.24
2023-04-26T06:15:27.451Z,11.38
2023-04-26T06:18:27.455Z,11.50
2023-04-26T06:21:29.477Z,11.70
2023-04-26T06:24:29.398Z,11.91
2023-04-26T06:27:29.415Z,12.12
2023-04-26T06:30:29.502Z,12.36
2023-04-26T06:33:29.500Z,12.68
2023-04-26T06:36:29.489Z,12.85
2023-04-26T06:39:29.460Z,12.75
2023-04-26T06:42:29.461Z,12.51
2023-04-26T06:45:52.734Z,12.40
2023-04-26T06:48:53.519Z,12.30
2023-04-26T06:51:53.504Z,12.22
2023-04-26T06:54:57.003Z,12.24
2023-04-26T06:57:57.546Z,12.28
2023-04-26T07:00:57.506Z,12.24
2023-04-26T07:03:57.945Z,12.25
2023-04-26T07:06:58.492Z,12.38
2023-04-26T07:09:58.537Z,12.56
2023-04-26T07:13:00.571Z,12.60
2023-04-26T07:16:01.634Z,12.53
2023-04-26T07:19:04.526Z,12.67
2023-04-26T07:22:04.519Z,12.91
2023-04-26T07:25:04.599Z,13.17
2023-04-26T07:28:05.626Z,13.41
2023-04-26T07:31:07.844Z,13.61
2023-04-26T07:34:08.573Z,13.79
2023-04-26T07:37:08.756Z,13.97
2023-04-26T07:40:08.547Z,14.32
2023-04-26T07:43:08.615Z,14.87
2023-04-26T07:46:08.611Z,15.68
2023-04-26T07:49:08.623Z,16.54
2023-04-26T07:52:08.553Z,17.18
2023-04-26T07:55:08.556Z,17.86
2023-04-26T07:58:08.596Z,18.69
2023-04-26T08:01:10.614Z,19.45
2023-04-26T08:04:11.012Z,19.57
2023-04-26T08:07:11.572Z,19.68
2023-04-26T08:10:11.605Z,19.84
2023-04-26T08:13:11.643Z,20.11
2023-04-26T08:16:12.717Z,20.35
2023-04-26T08:19:12.611Z,20.37
2023-04-26T08:22:12.643Z,20.00
2023-04-26T08:25:12.708Z,19.52
2023-04-26T08:28:14.674Z,19.32
2023-04-26T08:31:09.507Z,19.07
2023-04-26T08:34:09.670Z,18.54
2023-04-26T08:37:09.730Z,17.91
2023-04-26T08:40:09.666Z,17.30
2023-04-26T08:43:09.721Z,17.26
2023-04-26T08:46:02.775Z,17.46
2023-04-26T08:49:02.788Z,17.49
2023-04-26T08:52:02.700Z,17.29
2023-04-26T08:55:02.734Z,17.37
2023-04-26T08:58:02.762Z,17.88
2023-04-26T09:01:02.668Z,18.78
2023-04-26T09:04:02.874Z,19.38
2023-04-26T09:07:02.694Z,19.32
2023-04-26T09:10:03.750Z,18.94
2023-04-26T09:13:08.684Z,18.69
2023-04-26T09:16:08.857Z,18.57
2023-04-26T09:19:08.726Z,18.31
2023-04-26T09:22:09.946Z,17.97
2023-04-26T09:25:09.780Z,17.78
2023-04-26T09:28:09.855Z,17.49
2023-04-26T09:31:09.851Z,17.02
2023-04-26T09:34:12.826Z,16.82
2023-04-26T09:37:13.836Z,16.58
2023-04-26T09:40:14.783Z,16.34
2023-04-26T09:43:15.907Z,16.15
2023-04-26T09:46:15.755Z,15.98
2023-04-26T09:49:15.781Z,15.81
2023-04-26T09:52:15.793Z,15.55
2023-04-26T09:55:31.178Z,15.29
2023-04-26T09:58:35.969Z,15.18
2023-04-26T10:01:36.876Z,15.11
2023-04-26T10:04:36.949Z,15.09
2023-04-26T10:07:36.880Z,15.00
2023-04-26T10:10:36.807Z,14.83
2023-04-26T10:13:36.818Z,14.82
2023-04-26T10:16:36.915Z,14.85
2023-04-26T10:19:36.890Z,14.84
2023-04-26T10:22:36.843Z,14.84
2023-04-26T10:25:36.797Z,14.83
2023-04-26T10:29:01.713Z,14.83
2023-04-26T10:32:15.877Z,14.94
2023-04-26T10:35:24.889Z,15.17
2023-04-26T10:38:24.816Z,15.42
2023-04-26T10:41:41.914Z,15.60
2023-04-26T10:44:51.912Z,15.85
2023-04-26T10:47:52.922Z,16.05
2023-04-26T10:51:11.896Z,16.18
2023-04-26T10:54:11.935Z,16.06
2023-04-26T10:57:11.907Z,15.96
2023-04-26T11:00:20.991Z,15.88
2023-04-26T11:03:20.985Z,15.67
2023-04-26T11:06:21.899Z,15.39
2023-04-26T11:09:45.929Z,15.32
2023-04-26T11:12:45.992Z,15.51
2023-04-26T11:15:45.971Z,15.94
2023-04-26T11:18:45.973Z,16.45
2023-04-26T11:21:47.430Z,16.80
2023-04-26T11:24:48.050Z,16.80
2023-04-26T11:27:49.015Z,16.58
2023-04-26T11:30:48.982Z,16.38
2023-04-26T11:33:50.815Z,16.39
2023-04-26T11:36:51.006Z,16.36
2023-04-26T11:39:44.101Z,16.22
2023-04-26T11:42:43.996Z,16.07
2023-04-26T11:45:44.003Z,15.78
2023-04-26T11:48:45.103Z,15.34
2023-04-26T11:51:45.634Z,15.13
2023-04-26T11:54:46.045Z,15.15
2023-04-26T11:57:46.031Z,15.23
2023-04-26T12:00:46.079Z,15.36
2023-04-26T12:03:46.249Z,15.45
2023-04-26T12:06:53.998Z,15.56
2023-04-26T12:09:55.090Z,15.64
2023-04-26T12:13:04.047Z,15.69
2023-04-26T12:16:07.292Z,15.68
2023-04-26T12:19:13.061Z,15.66
2023-04-26T12:22:13.030Z,15.60
2023-04-26T12:25:19.111Z,15.45
2023-04-26T12:28:20.093Z,15.29
2023-04-26T12:31:20.132Z,15.07
2023-04-26T12:34:20.047Z,14.76
2023-04-26T12:37:21.050Z,14.54
2023-04-26T12:40:22.090Z,14.45
2023-04-26T12:43:23.077Z,14.35
2023-04-26T12:46:23.124Z,14.18
2023-04-26T12:49:23.132Z,13.99
2023-04-26T12:52:23.096Z,13.85
2023-04-26T12:55:26.062Z,13.71
2023-04-26T12:58:26.108Z,13.56
2023-04-26T13:01:26.125Z,13.40
2023-04-26T13:04:26.305Z,13.35
2023-04-26T13:07:27.181Z,13.29
2023-04-26T13:10:27.192Z,13.22
2023-04-26T13:13:39.898Z,13.16
2023-04-26T13:16:45.160Z,13.17
2023-04-26T13:19:45.155Z,13.20
2023-04-26T13:22:48.172Z,13.21
2023-04-26T13:25:49.178Z,13.18
2023-04-26T13:28:49.184Z,13.16
2023-04-26T13:31:49.240Z,13.17
2023-04-26T13:34:51.271Z,13.18
2023-04-26T13:37:51.244Z,13.26
2023-04-26T13:40:53.114Z,13.37
2023-04-26T13:43:53.248Z,13.42
2023-04-26T13:46:55.204Z,13.46
2023-04-26T13:49:58.179Z,13.49
2023-04-26T13:52:52.450Z,13.49
2023-04-26T13:55:52.237Z,13.47
2023-04-26T13:58:46.334Z,13.40
2023-04-26T14:01:48.291Z,13.25
2023-04-26T14:04:49.559Z,13.04
2023-04-26T14:07:53.546Z,12.90
2023-04-26T14:10:55.244Z,12.85
2023-04-26T14:13:56.298Z,12.84
2023-04-26T14:16:56.255Z,12.82
2023-04-26T14:19:56.227Z,12.82
2023-04-26T14:22:56.291Z,12.79
2023-04-26T14:25:56.234Z,12.79
2023-04-26T14:28:57.432Z,12.74
2023-04-26T14:31:58.310Z,12.73
2023-04-26T14:34:59.319Z,12.72
2023-04-26T14:38:00.281Z,12.68
2023-04-26T14:41:00.307Z,12.65
2023-04-26T14:44:00.356Z,12.67
2023-04-26T14:47:00.323Z,12.66
2023-04-26T14:50:00.327Z,12.63
2023-04-26T14:53:00.331Z,12.58
2023-04-26T14:56:00.331Z,12.57
2023-04-26T14:59:00.450Z,12.54
2023-04-26T15:02:01.434Z,12.49
2023-04-26T15:05:01.417Z,12.43
2023-04-26T15:08:02.446Z,12.38
2023-04-26T15:11:02.317Z,12.38
2023-04-26T15:14:03.365Z,12.37
2023-04-26T15:17:03.340Z,12.35
2023-04-26T15:20:04.396Z,12.37
2023-04-26T15:23:04.352Z,12.37
2023-04-26T15:26:04.431Z,12.35
2023-04-26T15:29:05.523Z,12.34
2023-04-26T15:32:05.408Z,12.38
2023-04-26T15:35:05.424Z,12.39
2023-04-26T15:38:05.621Z,12.39
2023-04-26T15:41:05.435Z,12.39
2023-04-26T15:44:08.401Z,12.38
2023-04-26T15:47:08.411Z,12.37
2023-04-26T15:50:09.420Z,12.37
2023-04-26T15:53:09.508Z,12.38
2023-04-26T15:56:09.453Z,12.41
2023-04-26T15:59:11.492Z,12.43
2023-04-26T16:02:13.463Z,12.42
2023-04-26T16:05:14.603Z,12.40
2023-04-26T16:08:17.659Z,12.37
2023-04-26T16:11:24.486Z,12.33
2023-04-26T16:14:24.755Z,12.28
2023-04-26T16:17:24.461Z,12.27
2023-04-26T16:20:24.479Z,12.29
2023-04-26T16:23:24.517Z,12.26
2023-04-26T16:26:24.521Z,12.25
2023-04-26T16:29:24.487Z,12.23
2023-04-26T16:32:24.889Z,12.22
2023-04-26T16:35:25.515Z,12.19
2023-04-26T16:38:18.496Z,12.17
2023-04-26T16:41:18.492Z,12.19
2023-04-26T16:44:18.512Z,12.20
2023-04-26T16:47:18.520Z,12.20
2023-04-26T16:50:19.522Z,12.18
2023-04-26T16:53:19.651Z,12.19
2023-04-26T16:56:19.466Z,12.22
2023-04-26T16:59:19.730Z,12.24
2023-04-26T17:02:20.920Z,12.25
2023-04-26T17:05:21.532Z,12.25
2023-04-26T17:08:21.526Z,12.26
2023-04-26T17:11:21.564Z,12.26
2023-04-26T17:14:22.592Z,12.26
2023-04-26T17:17:23.587Z,12.27
2023-04-26T17:20:25.794Z,12.26
2023-04-26T17:23:25.580Z,12.22
2023-04-26T17:26:28.565Z,12.18
2023-04-26T17:29:28.603Z,12.15
2023-04-26T17:32:28.638Z,12.15
2023-04-26T17:35:28.606Z,12.14
2023-04-26T17:38:28.594Z,12.14
2023-04-26T17:41:28.561Z,12.13
2023-04-26T17:44:28.902Z,12.09
2023-04-26T17:47:28.648Z,12.06
2023-04-26T17:50:29.602Z,12.01
2023-04-26T17:53:29.688Z,11.94
2023-04-26T17:56:29.814Z,11.88
2023-04-26T17:59:29.658Z,11.82
2023-04-26T18:02:29.755Z,11.77
2023-04-26T18:05:30.593Z,11.72
2023-04-26T18:08:31.628Z,11.67
2023-04-26T18:11:31.718Z,11.64
2023-04-26T18:14:31.600Z,11.60
2023-04-26T18:17:31.800Z,11.57
2023-04-26T18:20:31.627Z,11.55
2023-04-26T18:23:31.840Z,11.52
2023-04-26T18:26:31.658Z,11.50
2023-04-26T18:29:31.688Z,11.47
2023-04-26T18:32:31.768Z,11.45
2023-04-26T18:35:31.709Z,11.43
2023-04-26T18:38:31.660Z,11.40
2023-04-26T18:41:31.679Z,11.37
2023-04-26T18:44:33.746Z,11.35
2023-04-26T18:47:33.804Z,11.33
2023-04-26T18:50:33.761Z,11.31
2023-04-26T18:53:34.773Z,11.30
2023-04-26T18:56:34.729Z,11.29
2023-04-26T18:59:34.735Z,11.28
2023-04-26T19:02:34.992Z,11.28
2023-04-26T19:05:35.797Z,11.27
2023-04-26T19:08:35.849Z,11.27
2023-04-26T19:11:35.759Z,11.28
2023-04-26T19:14:35.780Z,11.30
2023-04-26T19:17:35.826Z,11.33
2023-04-26T19:20:36.825Z,11.37
2023-04-26T19:23:36.772Z,11.42
2023-04-26T19:26:36.766Z,11.46
2023-04-26T19:29:36.847Z,11.51
2023-04-26T19:32:36.808Z,11.55
2023-04-26T19:35:36.840Z,11.59
2023-04-26T19:38:36.768Z,11.65
2023-04-26T19:41:30.023Z,11.67
2023-04-26T19:44:29.869Z,11.69
2023-04-26T19:47:29.866Z,11.69
2023-04-26T19:50:29.768Z,11.68
2023-04-26T19:53:29.861Z,11.68
2023-04-26T19:56:30.997Z,11.68
2023-04-26T19:59:30.981Z,11.67
2023-04-26T20:02:31.368Z,11.66
2023-04-26T20:05:31.883Z,11.64
2023-04-26T20:08:31.956Z,11.63
2023-04-26T20:11:31.820Z,11.63
2023-04-26T20:14:31.882Z,11.65
2023-04-26T20:17:32.052Z,11.65
2023-04-26T20:20:31.843Z,11.66
2023-04-26T20:23:31.904Z,11.66
2023-04-26T20:26:31.860Z,11.67
2023-04-26T20:29:31.904Z,11.67
2023-04-26T20:32:31.976Z,11.66
2023-04-26T20:35:31.870Z,11.67
2023-04-26T20:38:31.885Z,11.66
2023-04-26T20:41:31.883Z,11.65
2023-04-26T20:44:32.007Z,11.63
2023-04-26T20:47:31.988Z,11.61
2023-04-26T20:50:31.991Z,11.60
2023-04-26T20:53:31.927Z,11.62
2023-04-26T20:56:31.912Z,11.62
2023-04-26T20:59:31.983Z,11.65
2023-04-26T21:02:31.971Z,11.66
2023-04-26T21:05:31.971Z,11.68
2023-04-26T21:08:31.948Z,11.68
2023-04-26T21:11:31.945Z,11.67
2023-04-26T21:14:31.942Z,11.68
2023-04-26T21:17:32.034Z,11.69
2023-04-26T21:20:31.964Z,11.68
2023-04-26T21:23:31.998Z,11.66
2023-04-26T21:26:32.009Z,11.64
2023-04-26T21:29:32.003Z,11.64
2023-04-26T21:32:32.008Z,11.63
2023-04-26T21:35:31.995Z,11.62
2023-04-26T21:38:32.500Z,11.64
2023-04-26T21:41:34.168Z,11.67
2023-04-26T21:44:34.070Z,11.67
2023-04-26T21:47:36.080Z,11.56
2023-04-26T21:50:38.067Z,11.40
2023-04-26T21:53:38.050Z,11.23
2023-04-26T21:56:38.056Z,11.08
2023-04-26T21:59:38.073Z,10.96
2023-04-26T22:02:38.370Z,10.86
2023-04-26T22:05:39.068Z,10.77
2023-04-26T22:08:40.023Z,10.67
2023-04-26T22:11:41.155Z,10.57
2023-04-26T22:14:41.072Z,10.51
2023-04-26T22:17:41.174Z,10.43
2023-04-26T22:20:41.035Z,10.34
2023-04-26T22:23:41.118Z,10.27
2023-04-26T22:26:41.086Z,10.18
2023-04-26T22:29:42.117Z,10.08
2023-04-26T22:32:42.105Z,9.89
2023-04-26T22:35:42.141Z,9.74
2023-04-26T22:38:43.134Z,9.62
2023-04-26T22:41:43.176Z,9.50
2023-04-26T22:44:44.108Z,9.37
2023-04-26T22:47:44.209Z,9.18
2023-04-26T22:50:44.135Z,9.03
2023-04-26T22:53:44.321Z,8.86
2023-04-26T22:56:46.121Z,8.71
2023-04-26T22:59:48.347Z,8.61
2023-04-26T23:02:49.450Z,8.53
2023-04-26T23:05:50.183Z,8.46
2023-04-26T23:08:51.181Z,8.35
2023-04-26T23:11:52.149Z,8.20
2023-04-26T23:14:54.227Z,8.03
2023-04-26T23:17:56.203Z,7.89
2023-04-26T23:20:56.231Z,7.83
2023-04-26T23:23:56.217Z,7.78
2023-04-26T23:26:56.176Z,7.69
2023-04-26T23:29:56.164Z,7.59
2023-04-26T23:32:56.235Z,7.50
2023-04-26T23:35:58.234Z,7.43
2023-04-26T23:38:58.162Z,7.39
2023-04-26T23:42:02.441Z,7.35
2023-04-26T23:45:02.197Z,7.33
2023-04-26T23:48:02.320Z,7.31
2023-04-26T23:51:02.373Z,7.30
2023-04-26T23:54:03.231Z,7.30
2023-04-26T23:57:03.259Z,7.32
